PWSweather.com
Personal Weather Stations
Station Observations
UPSTATEWEATHER
Silver Leaf, Greer, SC 29650

Silver LeafGreer, SC 29650

Lat: 34.8955792, Lon: -82.2868211

Elevation: 875

Station Type: Davis Vantage Vue

https://www.upstateweather.com

High Low Average
Temperature 88.7°F31.5°C 71.2°F21.8°C 78.2°F25.7°C
Dew Point 76.6°F24.8°C 68.8°F20.4°C 72.7°F22.6°C
Winds 2.3 mph 3.7 kmh Calm Calm Calm Calm
Wind Gusts 3.5 mph5.6 kmh -- --
Humidity 94% 59% 84%
Pressure 29.94 in1013.9 mb 29.84 in1010.5 mb -
Precipitation 0.00 in0.0 mm - -
Hour Temp Dew Point Humidity Winds Wind Gusts Pressure Precip Precip Rate Daily Precip Total
12:00 AM 73.6°F23.1°C 69.5°F20.8°C 87% Calm Calm -- 29.89 in1012.2 mb - 0.00 in0.0 mm 0.00 in0.0 mm
12:15 AM 73.4°F23.0°C 69.3°F20.7°C 87% Calm Calm -- 29.89 in1012.2 mb - 0.00 in0.0 mm 0.00 in0.0 mm
12:30 AM 73.3°F22.9°C 69.5°F20.8°C 88% Calm Calm -- 29.88 in1011.9 mb - 0.00 in0.0 mm 0.00 in0.0 mm
12:45 AM 73.2°F22.9°C 69.4°F20.8°C 88% Calm Calm -- 29.88 in1011.9 mb - 0.00 in0.0 mm 0.00 in0.0 mm
01:00 AM 73.0°F22.8°C 69.6°F20.9°C 89% Calm Calm -- 29.88 in1011.9 mb - 0.00 in0.0 mm 0.00 in0.0 mm
01:15 AM 72.9°F22.7°C 69.1°F20.6°C 88% Calm Calm -- 29.88 in1011.9 mb - 0.00 in0.0 mm 0.00 in0.0 mm
01:30 AM 73.1°F22.8°C 69.7°F20.9°C 89% Calm Calm -- 29.88 in1011.9 mb - 0.00 in0.0 mm 0.00 in0.0 mm
01:45 AM 72.7°F22.6°C 69.3°F20.7°C 89% Calm Calm -- 29.88 in1011.9 mb - 0.00 in0.0 mm 0.00 in0.0 mm
02:00 AM 72.5°F22.5°C 69.4°F20.8°C 90% Calm Calm -- 29.87 in1011.5 mb - 0.00 in0.0 mm 0.00 in0.0 mm
02:15 AM 72.1°F22.3°C 69.3°F20.7°C 91% Calm Calm -- 29.87 in1011.5 mb - 0.00 in0.0 mm 0.00 in0.0 mm
02:30 AM 72.2°F22.3°C 69.4°F20.8°C 91% Calm Calm -- 29.87 in1011.5 mb - 0.00 in0.0 mm 0.00 in0.0 mm
02:45 AM 72.4°F22.4°C 69.3°F20.7°C 90% Calm Calm -- 29.88 in1011.9 mb - 0.00 in0.0 mm 0.00 in0.0 mm
03:00 AM 72.2°F22.3°C 69.1°F20.6°C 90% Calm Calm -- 29.87 in1011.5 mb - 0.00 in0.0 mm 0.00 in0.0 mm
03:15 AM 72.1°F22.3°C 69.0°F20.6°C 90% Calm Calm -- 29.87 in1011.5 mb - 0.00 in0.0 mm 0.00 in0.0 mm
03:30 AM 71.9°F22.2°C 68.8°F20.4°C 90% Calm Calm -- 29.87 in1011.5 mb - 0.00 in0.0 mm 0.00 in0.0 mm
03:45 AM 71.9°F22.2°C 69.1°F20.6°C 91% Calm Calm -- 29.87 in1011.5 mb - 0.00 in0.0 mm 0.00 in0.0 mm
04:00 AM 71.7°F22.1°C 68.9°F20.5°C 91% Calm Calm -- 29.87 in1011.5 mb - 0.00 in0.0 mm 0.00 in0.0 mm
04:15 AM 71.8°F22.1°C 69.0°F20.6°C 91% Calm Calm -- 29.87 in1011.5 mb - 0.00 in0.0 mm 0.00 in0.0 mm
04:30 AM 71.4°F21.9°C 69.0°F20.6°C 92% Calm Calm -- 29.87 in1011.5 mb - 0.00 in0.0 mm 0.00 in0.0 mm
04:45 AM 71.3°F21.8°C 68.9°F20.5°C 92% Calm Calm -- 29.88 in1011.9 mb - 0.00 in0.0 mm 0.00 in0.0 mm
05:00 AM 71.5°F21.9°C 69.1°F20.6°C 92% Calm Calm -- 29.88 in1011.9 mb - 0.00 in0.0 mm 0.00 in0.0 mm
05:15 AM 71.2°F21.8°C 69.1°F20.6°C 93% Calm Calm -- 29.88 in1011.9 mb - 0.00 in0.0 mm 0.00 in0.0 mm
05:30 AM 71.3°F21.8°C 69.2°F20.7°C 93% Calm Calm -- 29.89 in1012.2 mb - 0.00 in0.0 mm 0.00 in0.0 mm
05:45 AM 71.4°F21.9°C 69.2°F20.7°C 93% Calm Calm -- 29.90 in1012.5 mb - 0.00 in0.0 mm 0.00 in0.0 mm
06:00 AM 71.5°F21.9°C 69.4°F20.8°C 93% Calm Calm -- 29.89 in1012.2 mb - 0.00 in0.0 mm 0.00 in0.0 mm
06:15 AM 71.8°F22.1°C 69.7°F20.9°C 93% Calm Calm -- 29.90 in1012.5 mb - 0.00 in0.0 mm 0.00 in0.0 mm
06:30 AM 72.0°F22.2°C 69.9°F21.1°C 93% Calm Calm -- 29.90 in1012.5 mb - 0.00 in0.0 mm 0.00 in0.0 mm
06:45 AM 72.5°F22.5°C 70.0°F21.1°C 92% Calm Calm -- 29.90 in1012.5 mb - 0.00 in0.0 mm 0.00 in0.0 mm
07:00 AM 73.0°F22.8°C 70.5°F21.4°C 92% Calm Calm -- 29.90 in1012.5 mb - 0.00 in0.0 mm 0.00 in0.0 mm
07:15 AM 73.4°F23.0°C 70.9°F21.6°C 92% Calm Calm -- 29.91 in1012.9 mb - 0.00 in0.0 mm 0.00 in0.0 mm
07:30 AM 74.0°F23.3°C 71.5°F21.9°C 92% Calm Calm -- 29.92 in1013.2 mb - 0.00 in0.0 mm 0.00 in0.0 mm
07:45 AM 74.3°F23.5°C 71.8°F22.1°C 92% Calm Calm -- 29.92 in1013.2 mb - 0.00 in0.0 mm 0.00 in0.0 mm
08:00 AM 74.9°F23.8°C 72.4°F22.4°C 92% Calm Calm -- 29.92 in1013.2 mb - 0.00 in0.0 mm 0.00 in0.0 mm
08:15 AM 76.4°F24.7°C 73.6°F23.1°C 91% Calm Calm -- 29.92 in1013.2 mb - 0.00 in0.0 mm 0.00 in0.0 mm
08:30 AM 77.9°F25.5°C 74.4°F23.6°C 89% Calm Calm -- 29.93 in1013.5 mb - 0.00 in0.0 mm 0.00 in0.0 mm
08:45 AM 79.2°F26.2°C 74.6°F23.7°C 86% Calm Calm -- 29.93 in1013.5 mb - 0.00 in0.0 mm 0.00 in0.0 mm
09:00 AM 79.9°F26.6°C 74.7°F23.7°C 84% Calm Calm -- 29.93 in1013.5 mb - 0.00 in0.0 mm 0.00 in0.0 mm
09:15 AM 80.9°F27.2°C 75.2°F24.0°C 83% Calm Calm -- 29.93 in1013.5 mb - 0.00 in0.0 mm 0.00 in0.0 mm
09:30 AM 81.4°F27.4°C 75.4°F24.1°C 82% Calm Calm -- 29.94 in1013.9 mb - 0.00 in0.0 mm 0.00 in0.0 mm
09:45 AM 82.3°F27.9°C 76.6°F24.8°C 83% Calm Calm -- 29.94 in1013.9 mb - 0.00 in0.0 mm 0.00 in0.0 mm
10:00 AM 83.9°F28.8°C 75.5°F24.2°C 76% Calm Calm -- 29.93 in1013.5 mb - 0.00 in0.0 mm 0.00 in0.0 mm
10:15 AM 84.8°F29.3°C 74.4°F23.6°C 71% Calm Calm -- 29.93 in1013.5 mb - 0.00 in0.0 mm 0.00 in0.0 mm
10:30 AM 84.5°F29.2°C 74.9°F23.8°C 73% Calm Calm -- 29.94 in1013.9 mb - 0.00 in0.0 mm 0.00 in0.0 mm
10:45 AM 85.5°F29.7°C 74.6°F23.7°C 70% 1.2 mph N1.9 kmh N 3.5 mph5.6 kmh 29.93 in1013.5 mb - 0.00 in0.0 mm 0.00 in0.0 mm
11:00 AM 85.6°F29.8°C 74.2°F23.4°C 69% Calm Calm 2.3 mph3.7 kmh 29.93 in1013.5 mb - 0.00 in0.0 mm 0.00 in0.0 mm
11:15 AM 85.9°F29.9°C 75.8°F24.3°C 72% 1.2 mph 1.9 kmh 2.3 mph3.7 kmh 29.93 in1013.5 mb - 0.00 in0.0 mm 0.00 in0.0 mm
11:30 AM 85.7°F29.8°C 74.4°F23.6°C 69% 1.2 mph 1.9 kmh 2.3 mph3.7 kmh 29.93 in1013.5 mb - 0.00 in0.0 mm 0.00 in0.0 mm
11:45 AM 86.2°F30.1°C 74.4°F23.6°C 68% Calm Calm -- 29.92 in1013.2 mb - 0.00 in0.0 mm 0.00 in0.0 mm
12:00 PM 86.0°F30.0°C 73.8°F23.2°C 67% 1.2 mph 1.9 kmh 2.3 mph3.7 kmh 29.92 in1013.2 mb - 0.00 in0.0 mm 0.00 in0.0 mm
12:15 PM 86.7°F30.4°C 72.6°F22.6°C 63% 1.2 mph N1.9 kmh N 2.3 mph3.7 kmh 29.92 in1013.2 mb - 0.00 in0.0 mm 0.00 in0.0 mm
12:30 PM 86.3°F30.2°C 72.2°F22.3°C 63% Calm Calm -- 29.91 in1012.9 mb - 0.00 in0.0 mm 0.00 in0.0 mm
12:45 PM 86.5°F30.3°C 72.9°F22.7°C 64% Calm Calm -- 29.90 in1012.5 mb - 0.00 in0.0 mm 0.00 in0.0 mm
01:00 PM 87.1°F30.6°C 73.9°F23.3°C 65% Calm Calm -- 29.90 in1012.5 mb - 0.00 in0.0 mm 0.00 in0.0 mm
01:15 PM 86.9°F30.5°C 73.2°F22.9°C 64% Calm Calm -- 29.89 in1012.2 mb - 0.00 in0.0 mm 0.00 in0.0 mm
01:30 PM 87.7°F30.9°C 73.1°F22.8°C 62% Calm Calm 1.2 mph1.9 kmh 29.88 in1011.9 mb - 0.00 in0.0 mm 0.00 in0.0 mm
01:45 PM 88.0°F31.1°C 71.8°F22.1°C 59% Calm Calm -- 29.88 in1011.9 mb - 0.00 in0.0 mm 0.00 in0.0 mm
02:00 PM 87.8°F31.0°C 74.1°F23.4°C 64% Calm Calm -- 29.87 in1011.5 mb - 0.00 in0.0 mm 0.00 in0.0 mm
02:15 PM 88.7°F31.5°C 73.0°F22.8°C 60% 2.3 mph 3.7 kmh 2.3 mph3.7 kmh 29.87 in1011.5 mb - 0.00 in0.0 mm 0.00 in0.0 mm
02:30 PM 88.4°F31.3°C 74.2°F23.4°C 63% 2.3 mph N3.7 kmh N 2.3 mph3.7 kmh 29.85 in1010.8 mb - 0.00 in0.0 mm 0.00 in0.0 mm
02:45 PM 88.2°F31.2°C 73.6°F23.1°C 62% Calm Calm 1.2 mph1.9 kmh 29.84 in1010.5 mb - 0.00 in0.0 mm 0.00 in0.0 mm
03:00 PM 87.1°F30.6°C 74.4°F23.6°C 66% Calm Calm 1.2 mph1.9 kmh 29.85 in1010.8 mb - 0.00 in0.0 mm 0.00 in0.0 mm
03:15 PM 86.1°F30.1°C 75.2°F24.0°C 70% Calm Calm -- 29.84 in1010.5 mb - 0.00 in0.0 mm 0.00 in0.0 mm
03:30 PM 85.2°F29.6°C 74.3°F23.5°C 70% Calm Calm -- 29.85 in1010.8 mb - 0.00 in0.0 mm 0.00 in0.0 mm
03:45 PM 84.3°F29.1°C 74.7°F23.7°C 73% Calm Calm -- 29.85 in1010.8 mb - 0.00 in0.0 mm 0.00 in0.0 mm
04:00 PM 83.5°F28.6°C 75.5°F24.2°C 77% Calm Calm 2.3 mph3.7 kmh 29.86 in1011.2 mb - 0.00 in0.0 mm 0.00 in0.0 mm
04:15 PM 81.9°F27.7°C 75.9°F24.4°C 82% 1.2 mph 1.9 kmh 2.3 mph3.7 kmh 29.86 in1011.2 mb - 0.00 in0.0 mm 0.00 in0.0 mm
04:30 PM 80.7°F27.1°C 75.8°F24.3°C 85% Calm Calm -- 29.86 in1011.2 mb - 0.00 in0.0 mm 0.00 in0.0 mm
04:45 PM 79.4°F26.3°C 75.2°F24.0°C 87% 1.2 mph N1.9 kmh N 2.3 mph3.7 kmh 29.85 in1010.8 mb - 0.00 in0.0 mm 0.00 in0.0 mm
05:00 PM 78.5°F25.8°C 75.0°F23.9°C 89% Calm Calm -- 29.85 in1010.8 mb - 0.00 in0.0 mm 0.00 in0.0 mm
05:15 PM 78.7°F25.9°C 75.5°F24.2°C 90% Calm Calm 1.2 mph1.9 kmh 29.85 in1010.8 mb - 0.00 in0.0 mm 0.00 in0.0 mm
05:30 PM 78.5°F25.8°C 75.3°F24.1°C 90% Calm Calm -- 29.85 in1010.8 mb - 0.00 in0.0 mm 0.00 in0.0 mm
05:45 PM 78.3°F25.7°C 75.1°F23.9°C 90% Calm Calm -- 29.85 in1010.8 mb - 0.00 in0.0 mm 0.00 in0.0 mm
06:00 PM 78.3°F25.7°C 75.1°F23.9°C 90% Calm Calm -- 29.85 in1010.8 mb - 0.00 in0.0 mm 0.00 in0.0 mm
06:15 PM 78.3°F25.7°C 75.1°F23.9°C 90% Calm Calm -- 29.85 in1010.8 mb - 0.00 in0.0 mm 0.00 in0.0 mm
06:30 PM 78.3°F25.7°C 75.1°F23.9°C 90% Calm Calm -- 29.86 in1011.2 mb - 0.00 in0.0 mm 0.00 in0.0 mm
06:45 PM 78.2°F25.7°C 75.0°F23.9°C 90% Calm Calm -- 29.86 in1011.2 mb - 0.00 in0.0 mm 0.00 in0.0 mm
07:00 PM 78.1°F25.6°C 74.9°F23.8°C 90% Calm Calm -- 29.87 in1011.5 mb - 0.00 in0.0 mm 0.00 in0.0 mm
07:15 PM 78.0°F25.6°C 74.2°F23.4°C 88% Calm Calm -- 29.87 in1011.5 mb - 0.00 in0.0 mm 0.00 in0.0 mm
07:30 PM 77.8°F25.4°C 74.0°F23.3°C 88% Calm Calm -- 29.87 in1011.5 mb - 0.00 in0.0 mm 0.00 in0.0 mm
07:45 PM 77.5°F25.3°C 74.0°F23.3°C 89% Calm Calm -- 29.88 in1011.9 mb - 0.00 in0.0 mm 0.00 in0.0 mm
08:00 PM 77.1°F25.1°C 73.6°F23.1°C 89% Calm Calm -- 29.88 in1011.9 mb - 0.00 in0.0 mm 0.00 in0.0 mm
08:15 PM 76.7°F24.8°C 73.5°F23.1°C 90% Calm Calm -- 29.89 in1012.2 mb - 0.00 in0.0 mm 0.00 in0.0 mm
08:30 PM 76.6°F24.8°C 73.8°F23.2°C 91% Calm Calm -- 29.89 in1012.2 mb - 0.00 in0.0 mm 0.00 in0.0 mm
08:45 PM 76.6°F24.8°C 73.8°F23.2°C 91% Calm Calm -- 29.90 in1012.5 mb - 0.00 in0.0 mm 0.00 in0.0 mm
09:00 PM 76.6°F24.8°C 73.8°F23.2°C 91% Calm Calm -- 29.90 in1012.5 mb - 0.00 in0.0 mm 0.00 in0.0 mm
09:15 PM 76.5°F24.7°C 73.7°F23.2°C 91% Calm Calm -- 29.90 in1012.5 mb - 0.00 in0.0 mm 0.00 in0.0 mm
09:30 PM 76.4°F24.7°C 73.6°F23.1°C 91% Calm Calm -- 29.91 in1012.9 mb - 0.00 in0.0 mm 0.00 in0.0 mm
09:45 PM 76.4°F24.7°C 73.9°F23.3°C 92% Calm Calm -- 29.91 in1012.9 mb - 0.00 in0.0 mm 0.00 in0.0 mm
10:00 PM 76.4°F24.7°C 73.9°F23.3°C 92% Calm Calm -- 29.91 in1012.9 mb - 0.00 in0.0 mm 0.00 in0.0 mm
10:15 PM 76.4°F24.7°C 73.9°F23.3°C 92% Calm Calm -- 29.92 in1013.2 mb - 0.00 in0.0 mm 0.00 in0.0 mm
10:30 PM 76.4°F24.7°C 73.9°F23.3°C 92% Calm Calm -- 29.92 in1013.2 mb - 0.00 in0.0 mm 0.00 in0.0 mm
10:45 PM 76.2°F24.6°C 73.7°F23.2°C 92% Calm Calm -- 29.92 in1013.2 mb - 0.00 in0.0 mm 0.00 in0.0 mm
11:00 PM 75.7°F24.3°C 73.5°F23.1°C 93% Calm Calm -- 29.92 in1013.2 mb - 0.00 in0.0 mm 0.00 in0.0 mm
11:15 PM 75.5°F24.2°C 73.4°F23.0°C 93% Calm Calm -- 29.92 in1013.2 mb - 0.00 in0.0 mm 0.00 in0.0 mm
11:30 PM 75.2°F24.0°C 73.4°F23.0°C 94% Calm Calm -- 29.92 in1013.2 mb - 0.00 in0.0 mm 0.00 in0.0 mm
11:45 PM 75.0°F23.9°C 72.9°F22.7°C 93% Calm Calm -- 29.92 in1013.2 mb - 0.00 in0.0 mm 0.00 in0.0 mm